createdAt,value
2022-09-26T00:01:39.539Z,33.80
2022-09-26T00:04:26.886Z,31.90
2022-09-26T00:06:57.269Z,32.30
2022-09-26T00:09:27.788Z,33.00
2022-09-26T00:11:55.476Z,29.90
2022-09-26T00:14:27.612Z,27.50
2022-09-26T00:16:56.249Z,28.60
2022-09-26T00:19:24.575Z,31.50
2022-09-26T00:21:52.348Z,29.90
2022-09-26T00:24:20.106Z,30.00
2022-09-26T00:26:47.724Z,26.30
2022-09-26T00:29:15.632Z,26.70
2022-09-26T00:31:46.239Z,29.90
2022-09-26T00:34:17.273Z,25.00
2022-09-26T00:36:45.081Z,26.80
2022-09-26T00:39:15.632Z,28.40
2022-09-26T00:41:44.874Z,26.50
2022-09-26T00:44:37.056Z,29.10
2022-09-26T00:47:14.630Z,27.40
2022-09-26T00:49:45.065Z,24.00
2022-09-26T00:52:26.714Z,23.60
2022-09-26T00:54:58.222Z,25.20
2022-09-26T00:57:34.758Z,25.80
2022-09-26T01:00:10.321Z,28.00
2022-09-26T01:02:39.332Z,29.70
2022-09-26T01:05:08.440Z,26.60
2022-09-26T01:07:36.164Z,28.70
2022-09-26T01:10:06.227Z,30.00
2022-09-26T01:12:38.083Z,26.40
2022-09-26T01:15:08.963Z,24.50
2022-09-26T01:17:44.274Z,27.00
2022-09-26T01:20:29.354Z,26.30
2022-09-26T01:23:40.654Z,23.50
2022-09-26T01:26:45.597Z,25.00
2022-09-26T01:30:04.870Z,23.40
2022-09-26T01:32:57.250Z,26.40
2022-09-26T01:36:07.837Z,22.90
2022-09-26T01:39:00.468Z,25.60
2022-09-26T01:41:55.545Z,25.60
2022-09-26T01:44:50.192Z,23.60
2022-09-26T01:47:27.673Z,25.40
2022-09-26T01:50:24.155Z,29.00
2022-09-26T01:53:10.822Z,24.30
2022-09-26T01:55:51.697Z,23.80
2022-09-26T01:58:37.370Z,24.10
2022-09-26T02:01:13.774Z,25.40
2022-09-26T02:03:49.009Z,24.90
2022-09-26T02:06:31.211Z,24.60
2022-09-26T02:09:13.311Z,27.70
2022-09-26T02:11:47.293Z,23.80
2022-09-26T02:14:27.077Z,24.20
2022-09-26T02:17:01.383Z,24.60
2022-09-26T02:19:39.513Z,20.20
2022-09-26T02:22:07.256Z,25.80
2022-09-26T02:24:34.976Z,22.20
2022-09-26T02:27:03.076Z,25.90
2022-09-26T02:29:32.237Z,21.50
2022-09-26T02:32:15.588Z,20.60
2022-09-26T02:34:48.259Z,21.90
2022-09-26T02:37:18.765Z,18.50
2022-09-26T02:39:49.909Z,22.60
2022-09-26T02:42:36.890Z,24.60
2022-09-26T02:45:54.377Z,32.60
2022-09-26T02:48:54.113Z,22.20
2022-09-26T02:52:08.993Z,21.40
2022-09-26T02:55:26.332Z,21.30
2022-09-26T02:58:45.783Z,19.80
2022-09-26T03:01:31.938Z,17.60
2022-09-26T03:04:18.321Z,23.50
2022-09-26T03:06:53.680Z,20.10
2022-09-26T03:09:25.132Z,21.00
2022-09-26T03:11:55.239Z,19.80
2022-09-26T03:14:22.866Z,25.60
2022-09-26T03:16:52.881Z,28.70
2022-09-26T03:19:52.955Z,24.60
2022-09-26T03:22:20.655Z,22.20
2022-09-26T03:24:48.221Z,18.60
2022-09-26T03:27:18.348Z,20.30
2022-09-26T03:29:45.980Z,19.50
2022-09-26T03:32:13.616Z,21.00
2022-09-26T03:34:41.177Z,26.00
2022-09-26T03:37:08.747Z,21.60
2022-09-26T03:39:36.316Z,20.50
2022-09-26T03:42:03.969Z,19.20
2022-09-26T03:44:31.668Z,23.30
2022-09-26T03:46:59.511Z,21.50
2022-09-26T03:49:27.077Z,27.20
2022-09-26T03:51:54.725Z,27.90
2022-09-26T03:54:22.539Z,20.70
2022-09-26T03:56:50.086Z,23.50
2022-09-26T03:59:17.616Z,20.40
2022-09-26T04:01:45.239Z,21.20
2022-09-26T04:04:15.203Z,20.40
2022-09-26T04:06:45.001Z,23.40
2022-09-26T04:09:16.760Z,23.20
2022-09-26T04:11:45.362Z,22.10
2022-09-26T04:14:12.939Z,18.50
2022-09-26T04:16:40.630Z,21.80
2022-09-26T04:19:08.642Z,23.60
2022-09-26T04:21:36.265Z,22.60
2022-09-26T04:24:04.061Z,24.50
2022-09-26T04:26:32.041Z,26.20
2022-09-26T04:28:59.769Z,25.60
2022-09-26T04:31:28.001Z,24.30
2022-09-26T04:33:56.230Z,20.30
2022-09-26T04:36:24.321Z,24.80
2022-09-26T04:38:52.046Z,27.70
2022-09-26T04:41:21.922Z,25.30
2022-09-26T04:43:49.787Z,28.00
2022-09-26T04:46:23.767Z,24.50
2022-09-26T04:48:57.857Z,21.80
2022-09-26T04:51:27.525Z,22.30
2022-09-26T04:53:55.724Z,23.60
2022-09-26T04:56:27.641Z,25.50
2022-09-26T04:58:58.609Z,23.80
2022-09-26T05:01:27.816Z,25.70
2022-09-26T05:03:57.509Z,23.60
2022-09-26T05:06:25.585Z,22.40
2022-09-26T05:08:53.572Z,25.30
2022-09-26T05:11:21.651Z,26.20
2022-09-26T05:13:53.577Z,26.30
2022-09-26T05:16:21.663Z,29.90
2022-09-26T05:18:52.028Z,29.00
2022-09-26T05:21:20.513Z,28.70
2022-09-26T05:24:07.058Z,25.00
2022-09-26T05:26:44.328Z,25.80
2022-09-26T05:29:12.493Z,23.80
2022-09-26T05:31:41.228Z,25.60
2022-09-26T05:34:18.747Z,25.40
2022-09-26T05:36:47.865Z,27.10
2022-09-26T05:39:35.884Z,24.60
2022-09-26T05:42:08.108Z,25.70
2022-09-26T05:44:36.423Z,27.60
2022-09-26T05:47:04.207Z,28.70
2022-09-26T05:49:34.063Z,35.10
2022-09-26T05:52:02.779Z,31.40
2022-09-26T05:54:30.416Z,25.80
2022-09-26T05:56:57.956Z,25.30
2022-09-26T05:59:25.561Z,26.50
2022-09-26T06:01:53.182Z,24.70
2022-09-26T06:04:21.022Z,25.00
2022-09-26T06:06:48.739Z,25.30
2022-09-26T06:09:16.464Z,24.30
2022-09-26T06:11:44.123Z,26.80
2022-09-26T06:14:11.656Z,23.90
2022-09-26T06:16:39.357Z,24.00
2022-09-26T06:19:07.022Z,25.90
2022-09-26T06:21:34.571Z,31.30
2022-09-26T06:24:02.281Z,29.50
2022-09-26T06:26:29.893Z,31.30
2022-09-26T06:29:02.359Z,30.00
2022-09-26T06:31:30.558Z,25.40
2022-09-26T06:33:58.795Z,25.70
2022-09-26T06:36:26.425Z,22.80
2022-09-26T06:38:55.929Z,22.00
2022-09-26T06:41:26.482Z,21.60
2022-09-26T06:43:54.157Z,19.60
2022-09-26T06:46:22.163Z,32.00
2022-09-26T06:48:49.809Z,28.50
2022-09-26T06:51:17.845Z,23.90
2022-09-26T06:53:46.000Z,23.50
2022-09-26T06:56:14.261Z,22.30
2022-09-26T06:58:41.939Z,24.80
2022-09-26T07:01:11.171Z,23.60
2022-09-26T07:03:44.462Z,25.00
2022-09-26T07:06:14.021Z,22.30
2022-09-26T07:09:01.619Z,23.50
2022-09-26T07:11:46.255Z,21.40
2022-09-26T07:14:17.777Z,23.10
2022-09-26T07:16:45.947Z,21.90
2022-09-26T07:19:13.671Z,21.80
2022-09-26T07:21:41.349Z,25.20
2022-09-26T07:24:13.900Z,21.30
2022-09-26T07:26:42.443Z,23.90
2022-09-26T07:29:10.593Z,21.60
2022-09-26T07:31:38.975Z,21.20
2022-09-26T07:34:08.730Z,19.70
2022-09-26T07:36:36.516Z,26.20
2022-09-26T07:39:04.206Z,23.20
2022-09-26T07:41:32.056Z,22.80
2022-09-26T07:47:06.155Z,23.60
2022-09-26T07:49:52.726Z,21.40
2022-09-26T07:52:22.559Z,21.10
2022-09-26T07:54:50.315Z,20.60
2022-09-26T07:57:19.471Z,19.10
2022-09-26T07:59:49.757Z,19.20
2022-09-26T08:02:31.993Z,22.30
2022-09-26T08:05:03.377Z,19.70
2022-09-26T08:07:33.261Z,19.00
2022-09-26T08:10:03.001Z,18.20
2022-09-26T08:12:39.923Z,17.10
2022-09-26T08:15:08.871Z,18.10
2022-09-26T08:17:37.044Z,13.60
2022-09-26T08:20:05.661Z,16.90
2022-09-26T08:22:33.389Z,15.10
2022-09-26T08:25:00.961Z,19.30
2022-09-26T08:27:33.917Z,18.80
2022-09-26T08:30:02.722Z,16.10
2022-09-26T08:32:32.332Z,15.50
2022-09-26T08:35:00.185Z,16.40
2022-09-26T08:37:29.494Z,18.40
2022-09-26T08:39:57.776Z,16.30
2022-09-26T08:43:04.305Z,13.80
2022-09-26T08:46:07.269Z,16.00
2022-09-26T08:49:17.838Z,21.30
2022-09-26T08:51:51.420Z,15.70
2022-09-26T08:54:34.028Z,12.70
2022-09-26T08:57:24.010Z,13.60
2022-09-26T08:59:54.424Z,18.00
2022-09-26T09:02:34.556Z,14.30
2022-09-26T09:05:26.858Z,12.00
2022-09-26T09:07:58.477Z,15.30
2022-09-26T09:10:53.388Z,12.70
2022-09-26T09:13:55.441Z,19.30
2022-09-26T09:17:01.419Z,12.10
2022-09-26T09:19:50.636Z,13.20
2022-09-26T09:22:26.902Z,11.40
2022-09-26T09:25:09.768Z,10.90
2022-09-26T09:28:07.909Z,13.10
2022-09-26T09:30:54.157Z,12.50
2022-09-26T09:33:33.765Z,13.10
2022-09-26T09:36:42.986Z,12.00
2022-09-26T09:39:23.964Z,12.20
2022-09-26T09:41:59.540Z,13.80
2022-09-26T09:44:47.309Z,14.30
2022-09-26T09:47:18.516Z,12.40
2022-09-26T09:49:49.329Z,10.60
2022-09-26T09:52:59.224Z,11.30
2022-09-26T09:56:02.736Z,9.40
2022-09-26T09:59:07.521Z,10.00
2022-09-26T10:01:43.973Z,10.60
2022-09-26T10:04:44.391Z,11.00
2022-09-26T10:07:12.939Z,9.70
2022-09-26T10:09:46.288Z,8.50
2022-09-26T10:12:21.500Z,9.10
2022-09-26T10:15:00.016Z,8.90
2022-09-26T10:17:29.621Z,7.20
2022-09-26T10:19:57.325Z,10.70
2022-09-26T10:22:37.479Z,9.80
2022-09-26T10:25:16.968Z,11.00
2022-09-26T10:27:53.113Z,9.00
2022-09-26T10:30:31.842Z,10.20
2022-09-26T10:33:03.380Z,10.40
2022-09-26T10:35:39.833Z,11.10
2022-09-26T10:38:28.779Z,13.50
2022-09-26T10:41:01.404Z,8.60
2022-09-26T10:43:36.126Z,9.40
2022-09-26T10:46:15.384Z,13.10
2022-09-26T10:48:57.772Z,9.10
2022-09-26T10:51:36.037Z,12.60
2022-09-26T10:54:09.310Z,9.80
2022-09-26T10:56:47.942Z,6.90
2022-09-26T10:59:19.182Z,9.40
2022-09-26T11:01:52.015Z,14.10
2022-09-26T11:04:49.145Z,13.50
2022-09-26T11:07:30.076Z,19.40
2022-09-26T11:10:04.241Z,20.00
2022-09-26T11:12:39.518Z,13.70
2022-09-26T11:15:14.197Z,15.10
2022-09-26T11:17:51.751Z,13.00
2022-09-26T11:20:47.507Z,12.00
2022-09-26T11:23:37.499Z,9.00
2022-09-26T11:26:37.775Z,10.90
2022-09-26T11:29:34.374Z,11.50
2022-09-26T11:32:05.336Z,9.50
2022-09-26T11:34:35.283Z,8.80
2022-09-26T11:37:30.127Z,9.60
2022-09-26T11:40:39.529Z,10.60
2022-09-26T11:43:34.836Z,16.00
2022-09-26T11:46:35.414Z,12.90
2022-09-26T11:49:52.741Z,12.90
2022-09-26T11:52:38.498Z,14.70
2022-09-26T11:55:45.423Z,16.00
2022-09-26T11:58:39.907Z,13.80
2022-09-26T12:01:16.813Z,13.60
2022-09-26T12:04:03.315Z,12.90
2022-09-26T12:06:39.933Z,15.10
2022-09-26T12:09:53.719Z,12.50
2022-09-26T12:12:41.470Z,10.40
2022-09-26T12:15:27.352Z,12.60
2022-09-26T12:18:24.749Z,12.50
2022-09-26T12:21:19.920Z,12.10
2022-09-26T12:24:24.305Z,11.20
2022-09-26T12:27:28.346Z,10.20
2022-09-26T12:30:02.810Z,8.80
2022-09-26T12:33:13.647Z,9.90
2022-09-26T12:36:19.146Z,10.70
2022-09-26T12:39:24.667Z,7.80
2022-09-26T12:42:42.023Z,10.00
2022-09-26T12:45:42.099Z,9.90
2022-09-26T12:49:02.031Z,10.50
2022-09-26T12:51:47.222Z,9.00
2022-09-26T12:54:34.323Z,9.70
2022-09-26T12:57:57.250Z,8.60
2022-09-26T13:00:25.354Z,8.90
2022-09-26T13:03:16.591Z,9.70
2022-09-26T13:06:08.925Z,9.60
2022-09-26T13:09:17.787Z,11.70
2022-09-26T13:12:20.264Z,9.60
2022-09-26T13:15:01.327Z,11.30
2022-09-26T13:17:46.139Z,11.90
2022-09-26T13:20:43.355Z,10.30
2022-09-26T13:23:31.367Z,9.70
2022-09-26T13:26:14.571Z,8.10
2022-09-26T13:29:23.267Z,10.00
2022-09-26T13:32:05.886Z,8.00
2022-09-26T13:34:47.347Z,8.70
2022-09-26T13:37:56.735Z,8.30
2022-09-26T13:41:00.504Z,8.40
2022-09-26T13:43:53.562Z,9.10
2022-09-26T13:46:46.195Z,9.10
2022-09-26T13:49:51.074Z,10.10
2022-09-26T13:53:18.724Z,10.40
2022-09-26T13:56:18.033Z,11.20
2022-09-26T13:58:45.584Z,10.60
2022-09-26T14:01:28.022Z,19.10
2022-09-26T14:04:20.642Z,10.70
2022-09-26T14:07:26.683Z,9.60
2022-09-26T14:10:13.922Z,9.60
2022-09-26T14:13:08.229Z,13.80
2022-09-26T14:15:48.275Z,10.00
2022-09-26T14:18:42.769Z,10.40
2022-09-26T14:21:12.567Z,12.90
2022-09-26T14:23:45.836Z,10.00
2022-09-26T14:26:27.655Z,10.90
2022-09-26T14:29:25.002Z,10.70
2022-09-26T14:32:05.666Z,12.10
2022-09-26T14:34:48.325Z,11.20
2022-09-26T14:37:32.499Z,11.50
2022-09-26T14:39:59.983Z,12.10
2022-09-26T14:42:46.888Z,11.80
2022-09-26T14:45:17.396Z,11.70
2022-09-26T14:48:14.070Z,12.50
2022-09-26T14:50:53.236Z,13.50
2022-09-26T14:53:38.070Z,13.80
2022-09-26T14:56:17.592Z,15.50
2022-09-26T14:58:51.649Z,12.80
2022-09-26T15:01:36.388Z,12.30
2022-09-26T15:04:17.332Z,11.20
2022-09-26T15:06:51.030Z,13.30
2022-09-26T15:09:30.760Z,15.30
2022-09-26T15:12:08.192Z,16.30
2022-09-26T15:14:52.584Z,17.70
2022-09-26T15:17:32.998Z,16.50
2022-09-26T15:20:07.948Z,14.60
2022-09-26T15:22:35.699Z,14.00
2022-09-26T15:25:21.811Z,12.30
2022-09-26T15:27:56.098Z,12.90
2022-09-26T15:30:33.370Z,13.80
2022-09-26T15:33:06.000Z,19.80
2022-09-26T15:35:34.010Z,20.80
2022-09-26T15:38:11.528Z,29.40
2022-09-26T15:40:39.348Z,37.80
2022-09-26T15:43:09.964Z,35.10
2022-09-26T15:45:46.301Z,20.50
2022-09-26T15:48:21.135Z,18.20
2022-09-26T15:51:00.711Z,21.40
2022-09-26T15:53:39.892Z,25.10
2022-09-26T15:56:16.193Z,22.40
2022-09-26T15:58:54.399Z,25.60
2022-09-26T16:01:27.924Z,24.00
2022-09-26T16:04:30.541Z,25.90
2022-09-26T16:07:15.341Z,23.70
2022-09-26T16:09:47.292Z,24.70
2022-09-26T16:12:15.373Z,20.50
2022-09-26T16:14:50.560Z,18.50
2022-09-26T16:17:21.470Z,18.30
2022-09-26T16:19:56.786Z,19.90
2022-09-26T16:22:36.958Z,29.90
2022-09-26T16:25:34.257Z,24.40
2022-09-26T16:28:21.887Z,24.10
2022-09-26T16:30:58.697Z,24.90
2022-09-26T16:33:31.663Z,24.80
2022-09-26T16:36:09.147Z,23.90
2022-09-26T16:38:37.371Z,24.40
2022-09-26T16:41:27.267Z,27.70
2022-09-26T16:44:16.393Z,28.90
2022-09-26T16:46:51.885Z,27.60
2022-09-26T16:49:48.494Z,30.00
2022-09-26T16:52:36.524Z,26.20
2022-09-26T16:55:06.687Z,25.20
2022-09-26T16:57:48.936Z,26.70
2022-09-26T17:00:40.106Z,24.50
2022-09-26T17:03:27.211Z,27.10
2022-09-26T17:05:57.620Z,29.40
2022-09-26T17:08:27.533Z,29.30
2022-09-26T17:11:02.823Z,30.10
2022-09-26T17:13:35.410Z,29.40
2022-09-26T17:16:03.762Z,26.60
2022-09-26T17:18:33.401Z,22.20
2022-09-26T17:21:02.246Z,29.30
2022-09-26T17:23:40.633Z,32.80
2022-09-26T17:26:19.951Z,30.40
2022-09-26T17:28:49.380Z,28.50
2022-09-26T17:31:21.667Z,21.90
2022-09-26T17:33:53.399Z,23.50
2022-09-26T17:36:28.328Z,22.20
2022-09-26T17:38:59.553Z,25.70
2022-09-26T17:41:29.756Z,21.50
2022-09-26T17:44:00.474Z,20.20
2022-09-26T17:46:28.909Z,18.10
2022-09-26T17:48:56.978Z,19.50
2022-09-26T17:51:25.427Z,18.90
2022-09-26T17:53:52.993Z,19.80
2022-09-26T17:56:20.972Z,19.00
2022-09-26T17:58:49.923Z,20.30
2022-09-26T18:01:30.234Z,21.10
2022-09-26T18:04:03.753Z,19.90
2022-09-26T18:06:33.263Z,23.30
2022-09-26T18:09:07.435Z,24.30
2022-09-26T18:11:36.208Z,23.20
2022-09-26T18:14:06.876Z,24.30
2022-09-26T18:16:34.620Z,27.30
2022-09-26T18:19:07.056Z,28.20
2022-09-26T18:21:44.483Z,29.40
2022-09-26T18:24:19.911Z,27.40
2022-09-26T18:26:50.886Z,27.50
2022-09-26T18:29:33.195Z,27.40
2022-09-26T18:32:03.009Z,25.80
2022-09-26T18:34:30.655Z,25.80
2022-09-26T18:37:00.115Z,30.70
2022-09-26T18:39:30.417Z,33.20
2022-09-26T18:42:09.085Z,41.50
2022-09-26T18:44:37.266Z,38.00
2022-09-26T18:47:14.592Z,36.60
2022-09-26T18:49:46.903Z,41.40
2022-09-26T18:52:17.843Z,45.50
2022-09-26T18:54:46.283Z,43.00
2022-09-26T18:57:33.166Z,46.80
2022-09-26T19:00:01.065Z,46.80
2022-09-26T19:02:38.415Z,59.40
2022-09-26T19:05:11.761Z,53.10
2022-09-26T19:07:40.401Z,49.70
2022-09-26T19:10:16.813Z,54.20
2022-09-26T19:12:44.565Z,52.20
2022-09-26T19:15:16.585Z,51.20
2022-09-26T19:17:44.316Z,48.10
2022-09-26T19:20:11.929Z,45.90
2022-09-26T19:22:39.614Z,43.70
2022-09-26T19:25:10.303Z,43.70
2022-09-26T19:27:52.024Z,40.60
2022-09-26T19:30:22.118Z,45.90
2022-09-26T19:32:56.080Z,45.60
2022-09-26T19:35:31.420Z,40.90
2022-09-26T19:38:00.905Z,45.10
2022-09-26T19:40:29.019Z,43.20
2022-09-26T19:42:57.331Z,40.80
2022-09-26T19:45:26.661Z,38.30
2022-09-26T19:47:56.094Z,42.70
2022-09-26T19:50:25.897Z,43.30
2022-09-26T19:52:56.948Z,38.60
2022-09-26T19:55:28.680Z,35.50
2022-09-26T19:58:01.988Z,35.30
2022-09-26T20:00:29.817Z,35.40
2022-09-26T20:02:57.520Z,39.60
2022-09-26T20:05:26.424Z,41.50
2022-09-26T20:07:54.101Z,39.20
2022-09-26T20:10:25.370Z,37.50
2022-09-26T20:12:53.818Z,35.00
2022-09-26T20:15:21.715Z,34.60
2022-09-26T20:17:50.823Z,28.80
2022-09-26T20:20:27.726Z,23.50
2022-09-26T20:22:56.552Z,22.90
2022-09-26T20:25:31.765Z,22.60
2022-09-26T20:28:00.443Z,22.80
2022-09-26T20:30:46.839Z,23.00
2022-09-26T20:33:14.584Z,22.40
2022-09-26T20:35:47.783Z,15.40
2022-09-26T20:38:40.288Z,14.60
2022-09-26T20:41:22.206Z,15.30
2022-09-26T20:44:01.747Z,16.00
2022-09-26T20:46:38.076Z,14.00
2022-09-26T20:49:16.809Z,15.40
2022-09-26T20:51:45.098Z,14.50
2022-09-26T20:54:32.718Z,15.30
2022-09-26T20:57:03.621Z,15.00
2022-09-26T20:59:34.907Z,15.10
2022-09-26T21:02:22.805Z,13.60
2022-09-26T21:04:52.212Z,14.70
2022-09-26T21:07:20.912Z,16.50
2022-09-26T21:09:49.740Z,15.00
2022-09-26T21:12:18.459Z,14.60
2022-09-26T21:14:46.501Z,23.60
2022-09-26T21:17:45.277Z,31.30
2022-09-26T21:20:26.042Z,29.50
2022-09-26T21:22:55.843Z,25.20
2022-09-26T21:25:27.872Z,17.80
2022-09-26T21:28:27.621Z,15.60
2022-09-26T21:31:05.590Z,16.10
2022-09-26T21:33:33.291Z,17.10
2022-09-26T21:36:01.280Z,16.20
2022-09-26T21:38:30.117Z,18.80
2022-09-26T21:41:00.769Z,16.90
2022-09-26T21:43:36.101Z,18.30
2022-09-26T21:46:03.805Z,19.00
2022-09-26T21:48:32.851Z,20.10
2022-09-26T21:51:03.945Z,17.10
2022-09-26T21:53:56.292Z,17.40
2022-09-26T21:56:32.564Z,15.90
2022-09-26T21:59:00.227Z,16.20
2022-09-26T22:01:27.903Z,14.60
2022-09-26T22:03:55.540Z,16.10
2022-09-26T22:06:23.104Z,18.80
2022-09-26T22:08:51.249Z,17.50
2022-09-26T22:11:18.881Z,16.90
2022-09-26T22:13:46.508Z,16.60
2022-09-26T22:16:14.084Z,16.40
2022-09-26T22:18:41.767Z,17.30
2022-09-26T22:21:11.589Z,15.80
2022-09-26T22:23:40.340Z,19.50
2022-09-26T22:26:07.899Z,19.30
2022-09-26T22:28:35.905Z,23.50
2022-09-26T22:31:05.149Z,23.30
2022-09-26T22:33:34.291Z,22.70
2022-09-26T22:36:02.481Z,20.30
2022-09-26T22:38:32.202Z,21.40
2022-09-26T22:41:03.204Z,23.10
2022-09-26T22:43:33.453Z,23.30
2022-09-26T22:46:11.634Z,26.40
2022-09-26T22:48:43.361Z,20.60
2022-09-26T22:51:11.009Z,20.90
2022-09-26T22:53:40.512Z,24.00
2022-09-26T22:56:12.497Z,22.30
2022-09-26T22:58:50.280Z,20.80
2022-09-26T23:01:24.491Z,20.10
2022-09-26T23:03:55.158Z,19.80
2022-09-26T23:06:24.165Z,19.90
2022-09-26T23:08:52.682Z,22.80
2022-09-26T23:11:21.915Z,21.40
2022-09-26T23:13:52.940Z,22.50
2022-09-26T23:16:23.976Z,22.80
2022-09-26T23:18:52.539Z,27.90
2022-09-26T23:21:27.266Z,28.10
2022-09-26T23:23:58.423Z,23.60
2022-09-26T23:26:30.228Z,22.50
2022-09-26T23:28:59.598Z,24.60
2022-09-26T23:31:28.661Z,26.80
2022-09-26T23:33:57.797Z,23.40
2022-09-26T23:36:25.953Z,23.90
2022-09-26T23:38:54.172Z,24.20
2022-09-26T23:41:21.683Z,28.20
2022-09-26T23:43:49.736Z,26.30
2022-09-26T23:46:17.672Z,24.00
2022-09-26T23:48:45.756Z,25.00
2022-09-26T23:51:13.383Z,25.40
2022-09-26T23:53:40.910Z,22.10
2022-09-26T23:56:12.483Z,22.90
2022-09-26T23:58:41.171Z,25.20
